createdAt,value
2017-07-16T00:01:15.881Z,22.54
2017-07-16T00:02:15.831Z,22.51
2017-07-16T00:03:15.418Z,22.48
2017-07-16T00:04:15.699Z,22.55
2017-07-16T00:05:15.606Z,22.5
2017-07-16T00:06:15.540Z,22.59
2017-07-16T00:07:15.173Z,22.57
2017-07-16T00:08:15.413Z,22.47
2017-07-16T00:09:15.042Z,22.55
2017-07-16T00:10:14.979Z,22.51
2017-07-16T00:11:14.916Z,22.55
2017-07-16T00:12:15.171Z,22.59
2017-07-16T00:13:15.186Z,22.59
2017-07-16T00:14:14.730Z,22.53
2017-07-16T00:15:14.976Z,22.53
2017-07-16T00:16:14.291Z,22.59
2017-07-16T00:17:14.893Z,22.59
2017-07-16T00:18:14.811Z,22.62
2017-07-16T00:19:14.501Z,22.54
2017-07-16T00:20:14.675Z,22.59
2017-07-16T00:21:14.603Z,22.54
2017-07-16T00:22:13.917Z,22.53
2017-07-16T00:23:14.157Z,22.47
2017-07-16T00:24:14.095Z,22.51
2017-07-16T00:25:14.407Z,22.41
2017-07-16T00:26:13.986Z,22.59
2017-07-16T00:27:14.275Z,22.55
2017-07-16T00:28:13.850Z,22.55
2017-07-16T00:29:13.787Z,22.47
2017-07-16T00:30:14.039Z,22.51
2017-07-16T00:31:13.665Z,22.44
2017-07-16T00:32:13.916Z,22.41
2017-07-16T00:33:13.935Z,22.48
2017-07-16T00:34:13.473Z,22.54
2017-07-16T00:35:14.127Z,22.51
2017-07-16T00:36:13.661Z,22.44
2017-07-16T00:37:13.641Z,22.45
2017-07-16T00:38:13.538Z,22.54
2017-07-16T00:39:13.274Z,22.57
2017-07-16T00:40:13.709Z,22.53
2017-07-16T00:41:13.065Z,22.54
2017-07-16T00:42:13.278Z,22.51
2017-07-16T00:43:13.251Z,22.41
2017-07-16T00:44:13.178Z,22.41
2017-07-16T00:45:13.095Z,22.39
2017-07-16T00:46:12.747Z,22.47
2017-07-16T00:47:13.004Z,22.53
2017-07-16T00:48:12.999Z,22.48
2017-07-16T00:49:12.569Z,22.53
2017-07-16T00:50:12.781Z,22.45
2017-07-16T00:51:12.490Z,22.48
2017-07-16T00:52:12.395Z,22.47
2017-07-16T00:53:12.362Z,22.51
2017-07-16T00:54:12.231Z,22.51
2017-07-16T00:55:12.469Z,22.5
2017-07-16T00:56:12.549Z,22.57
2017-07-16T00:57:12.029Z,22.48
2017-07-16T00:58:11.965Z,22.47
2017-07-16T00:59:12.218Z,22.5
2017-07-16T01:00:11.870Z,22.5
2017-07-16T01:01:12.110Z,22.55
2017-07-16T01:02:12.030Z,22.43
2017-07-16T01:03:11.967Z,22.55
2017-07-16T01:04:11.599Z,22.51
2017-07-16T01:05:12.195Z,22.47
2017-07-16T01:06:11.831Z,22.53
2017-07-16T01:07:11.775Z,22.45
2017-07-16T01:08:11.655Z,22.48
2017-07-16T01:09:11.606Z,22.48
2017-07-16T01:10:11.675Z,22.44
2017-07-16T01:11:11.525Z,22.51
2017-07-16T01:12:11.104Z,22.48
2017-07-16T01:13:11.072Z,22.5
2017-07-16T01:14:10.981Z,22.41
2017-07-16T01:15:10.923Z,22.54
2017-07-16T01:16:11.190Z,22.48
2017-07-16T01:17:10.782Z,22.48
2017-07-16T01:18:10.718Z,22.51
2017-07-16T01:19:10.966Z,22.45
2017-07-16T01:20:10.956Z,22.44
2017-07-16T01:21:10.522Z,22.45
2017-07-16T01:22:10.769Z,22.47
2017-07-16T01:23:10.483Z,22.5
2017-07-16T01:24:10.339Z,22.5
2017-07-16T01:25:10.306Z,22.47
2017-07-16T01:26:10.919Z,22.45
2017-07-16T01:27:10.145Z,22.48
2017-07-16T01:28:10.086Z,22.48
2017-07-16T01:29:10.350Z,22.45
2017-07-16T01:30:09.962Z,22.53
2017-07-16T01:31:10.562Z,22.53
2017-07-16T01:32:10.236Z,22.44
2017-07-16T01:33:10.084Z,22.48
2017-07-16T01:34:09.797Z,22.44
2017-07-16T01:35:09.659Z,22.5
2017-07-16T01:36:09.922Z,22.53
2017-07-16T01:37:10.111Z,22.48
2017-07-16T01:38:09.811Z,22.48
2017-07-16T01:39:09.710Z,22.47
2017-07-16T01:40:09.882Z,22.53
2017-07-16T01:41:09.591Z,22.44
2017-07-16T01:42:08.985Z,22.45
2017-07-16T01:43:09.482Z,22.48
2017-07-16T01:44:09.397Z,22.45
2017-07-16T01:45:09.431Z,22.45
2017-07-16T01:46:09.269Z,22.48
2017-07-16T01:47:08.926Z,22.47
2017-07-16T01:48:08.834Z,22.53
2017-07-16T01:49:09.191Z,22.47
2017-07-16T01:50:08.962Z,22.5
2017-07-16T01:51:08.981Z,22.5
2017-07-16T01:52:08.909Z,22.44
2017-07-16T01:53:08.834Z,22.44
2017-07-16T01:54:08.796Z,22.41
2017-07-16T01:55:08.707Z,22.47
2017-07-16T01:56:08.331Z,22.45
2017-07-16T01:57:08.577Z,22.43
2017-07-16T01:58:08.210Z,22.5
2017-07-16T01:59:08.156Z,22.43
2017-07-16T02:00:08.390Z,22.44
2017-07-16T02:01:08.087Z,22.44
2017-07-16T02:02:07.953Z,22.44
2017-07-16T02:03:07.890Z,22.47
2017-07-16T02:04:07.843Z,22.47
2017-07-16T02:05:08.455Z,22.43
2017-07-16T02:06:08.014Z,22.45
2017-07-16T02:07:07.644Z,22.45
2017-07-16T02:08:07.579Z,22.48
2017-07-16T02:09:07.826Z,22.44
2017-07-16T02:10:07.765Z,22.53
2017-07-16T02:11:07.708Z,22.5
2017-07-16T02:12:07.410Z,22.47
2017-07-16T02:13:07.577Z,22.45
2017-07-16T02:14:07.511Z,22.44
2017-07-16T02:15:07.186Z,22.41
2017-07-16T02:16:07.467Z,22.51
2017-07-16T02:17:07.330Z,22.39
2017-07-16T02:18:07.263Z,22.47
2017-07-16T02:19:07.266Z,22.48
2017-07-16T02:20:07.530Z,22.41
2017-07-16T02:21:06.638Z,22.44
2017-07-16T02:22:06.700Z,22.45
2017-07-16T02:23:06.706Z,22.44
2017-07-16T02:24:06.579Z,22.5
2017-07-16T02:25:06.516Z,22.45
2017-07-16T02:26:06.449Z,22.41
2017-07-16T02:27:06.695Z,22.48
2017-07-16T02:28:06.631Z,22.43
2017-07-16T02:29:06.262Z,22.38
2017-07-16T02:30:06.207Z,22.41
2017-07-16T02:31:06.143Z,22.41
2017-07-16T02:32:06.226Z,22.41
2017-07-16T02:33:06.323Z,22.33
2017-07-16T02:34:05.945Z,22.43
2017-07-16T02:35:06.203Z,22.39
2017-07-16T02:36:05.834Z,22.39
2017-07-16T02:37:06.072Z,22.38
2017-07-16T02:38:05.771Z,22.45
2017-07-16T02:39:05.837Z,22.44
2017-07-16T02:40:05.795Z,22.43
2017-07-16T02:41:05.815Z,22.45
2017-07-16T02:42:05.443Z,22.41
2017-07-16T02:43:05.699Z,22.43
2017-07-16T02:44:05.628Z,22.44
2017-07-16T02:45:05.336Z,22.41
2017-07-16T02:46:05.501Z,22.43
2017-07-16T02:47:05.438Z,22.36
2017-07-16T02:48:05.376Z,22.48
2017-07-16T02:49:05.317Z,22.36
2017-07-16T02:50:04.947Z,22.41
2017-07-16T02:51:05.188Z,22.41
2017-07-16T02:52:05.017Z,22.38
2017-07-16T02:53:04.754Z,22.36
2017-07-16T02:54:05.001Z,22.41
2017-07-16T02:55:04.628Z,22.43
2017-07-16T02:56:04.876Z,22.39
2017-07-16T02:57:04.814Z,22.41
2017-07-16T02:58:04.752Z,22.48
2017-07-16T02:59:04.690Z,22.43
2017-07-16T03:00:04.338Z,22.39
2017-07-16T03:01:04.625Z,22.41
2017-07-16T03:02:04.195Z,22.35
2017-07-16T03:03:04.440Z,22.38
2017-07-16T03:04:04.096Z,22.39
2017-07-16T03:05:04.005Z,22.39
2017-07-16T03:06:04.286Z,22.39
2017-07-16T03:07:03.873Z,22.39
2017-07-16T03:08:03.840Z,22.41
2017-07-16T03:09:04.060Z,22.43
2017-07-16T03:10:04.003Z,22.38
2017-07-16T03:11:03.712Z,22.41
2017-07-16T03:12:03.872Z,22.39
2017-07-16T03:13:03.808Z,22.35
2017-07-16T03:14:03.745Z,22.33
2017-07-16T03:15:03.632Z,22.39
2017-07-16T03:16:03.624Z,22.36
2017-07-16T03:17:03.575Z,22.43
2017-07-16T03:18:03.501Z,22.41
2017-07-16T03:19:03.445Z,22.43
2017-07-16T03:20:03.722Z,22.36
2017-07-16T03:21:03.305Z,22.39
2017-07-16T03:22:02.939Z,22.36
2017-07-16T03:23:02.872Z,22.44
2017-07-16T03:24:02.851Z,22.44
2017-07-16T03:25:03.202Z,22.45
2017-07-16T03:26:02.685Z,22.39
2017-07-16T03:27:02.622Z,22.45
2017-07-16T03:28:02.865Z,22.43
2017-07-16T03:29:02.489Z,22.36
2017-07-16T03:30:02.434Z,22.38
2017-07-16T03:31:02.678Z,22.39
2017-07-16T03:32:02.308Z,22.38
2017-07-16T03:33:02.548Z,22.39
2017-07-16T03:34:02.490Z,22.43
2017-07-16T03:35:02.588Z,22.36
2017-07-16T03:36:02.362Z,22.43
2017-07-16T03:37:02.390Z,22.41
2017-07-16T03:38:02.238Z,22.44
2017-07-16T03:39:02.241Z,22.36
2017-07-16T03:40:02.155Z,22.43
2017-07-16T03:41:02.056Z,22.43
2017-07-16T03:42:01.988Z,22.38
2017-07-16T03:43:01.942Z,22.43
2017-07-16T03:44:01.554Z,22.44
2017-07-16T03:45:01.800Z,22.39
2017-07-16T03:46:01.758Z,22.38
2017-07-16T03:47:01.688Z,22.39
2017-07-16T03:48:01.309Z,22.39
2017-07-16T03:49:01.591Z,22.43
2017-07-16T03:50:01.489Z,22.43
2017-07-16T03:51:01.426Z,22.43
2017-07-16T03:52:01.058Z,22.44
2017-07-16T03:53:00.988Z,22.33
2017-07-16T03:54:01.265Z,22.43
2017-07-16T03:55:01.176Z,22.43
2017-07-16T03:56:01.111Z,22.43
2017-07-16T03:57:01.045Z,22.41
2017-07-16T03:58:00.982Z,22.38
2017-07-16T03:59:00.609Z,22.41
2017-07-16T04:00:00.237Z,22.38
2017-07-16T04:01:00.793Z,22.44
2017-07-16T04:02:00.465Z,22.36
2017-07-16T04:03:00.064Z,22.39
2017-07-16T04:04:00.604Z,22.43
2017-07-16T04:05:00.316Z,22.39
2017-07-16T04:06:00.481Z,22.43
2017-07-16T04:07:00.492Z,22.39
2017-07-16T04:08:00.463Z,22.39
2017-07-16T04:09:00.292Z,22.41
2017-07-16T04:09:59.922Z,22.36
2017-07-16T04:11:00.169Z,22.36
2017-07-16T04:12:00.106Z,22.44
2017-07-16T04:12:59.732Z,22.36
2017-07-16T04:13:59.986Z,22.39
2017-07-16T04:14:59.609Z,22.43
2017-07-16T04:15:59.853Z,22.44
2017-07-16T04:16:59.174Z,22.39
2017-07-16T04:17:59.420Z,22.43
2017-07-16T04:18:59.048Z,22.38
2017-07-16T04:19:59.611Z,22.36
2017-07-16T04:20:59.543Z,22.41
2017-07-16T04:21:59.481Z,22.41
2017-07-16T04:22:59.412Z,22.36
2017-07-16T04:23:59.351Z,22.36
2017-07-16T04:24:59.311Z,22.41
2017-07-16T04:25:59.066Z,22.38
2017-07-16T04:26:58.854Z,22.43
2017-07-16T04:27:58.791Z,22.33
2017-07-16T04:28:58.421Z,22.43
2017-07-16T04:29:58.978Z,22.39
2017-07-16T04:30:59.169Z,22.43
2017-07-16T04:31:58.537Z,22.36
2017-07-16T04:32:58.786Z,22.36
2017-07-16T04:33:58.412Z,22.43
2017-07-16T04:34:58.689Z,22.38
2017-07-16T04:35:58.604Z,22.36
2017-07-16T04:36:58.229Z,22.36
2017-07-16T04:37:58.480Z,22.36
2017-07-16T04:38:58.419Z,22.45
2017-07-16T04:39:58.348Z,22.39
2017-07-16T04:40:58.274Z,22.41
2017-07-16T04:41:58.223Z,22.41
2017-07-16T04:42:58.161Z,22.38
2017-07-16T04:43:58.098Z,22.38
2017-07-16T04:44:58.035Z,22.39
2017-07-16T04:45:57.973Z,22.43
2017-07-16T04:46:57.908Z,22.45
2017-07-16T04:47:57.850Z,22.43
2017-07-16T04:48:57.789Z,22.39
2017-07-16T04:49:57.718Z,22.41
2017-07-16T04:50:57.662Z,22.41
2017-07-16T04:51:57.591Z,22.36
2017-07-16T04:52:57.532Z,22.38
2017-07-16T04:53:57.480Z,22.39
2017-07-16T04:54:57.476Z,22.41
2017-07-16T04:55:56.806Z,22.39
2017-07-16T04:56:57.283Z,22.43
2017-07-16T04:57:57.216Z,22.43
2017-07-16T04:58:56.843Z,22.41
2017-07-16T04:59:57.165Z,22.36
2017-07-16T05:00:56.721Z,22.39
2017-07-16T05:01:56.967Z,22.36
2017-07-16T05:02:56.905Z,22.45
2017-07-16T05:03:56.221Z,22.43
2017-07-16T05:04:56.827Z,22.43
2017-07-16T05:05:56.725Z,22.47
2017-07-16T05:06:56.655Z,22.43
2017-07-16T05:07:56.593Z,22.36
2017-07-16T05:08:56.525Z,22.38
2017-07-16T05:09:56.460Z,22.48
2017-07-16T05:10:56.402Z,22.36
2017-07-16T05:11:56.341Z,22.43
2017-07-16T05:12:56.280Z,22.43
2017-07-16T05:13:55.912Z,22.41
2017-07-16T05:14:55.842Z,22.41
2017-07-16T05:15:55.792Z,22.41
2017-07-16T05:16:56.050Z,22.39
2017-07-16T05:17:55.342Z,22.45
2017-07-16T05:18:55.591Z,22.47
2017-07-16T05:19:55.834Z,22.41
2017-07-16T05:20:55.781Z,22.43
2017-07-16T05:21:55.401Z,22.41
2017-07-16T05:22:55.646Z,22.43
2017-07-16T05:23:55.606Z,22.45
2017-07-16T05:24:55.528Z,22.44
2017-07-16T05:25:55.157Z,22.45
2017-07-16T05:26:55.091Z,22.51
2017-07-16T05:27:58.638Z,22.48
2017-07-16T05:28:55.276Z,22.43
2017-07-16T05:29:55.212Z,22.51
2017-07-16T05:30:55.188Z,22.41
2017-07-16T05:31:55.085Z,22.45
2017-07-16T05:32:54.714Z,22.47
2017-07-16T05:33:54.659Z,22.47
2017-07-16T05:34:54.896Z,22.48
2017-07-16T05:35:54.927Z,22.47
2017-07-16T05:36:54.770Z,22.5
2017-07-16T05:37:54.721Z,22.41
2017-07-16T05:38:54.647Z,22.48
2017-07-16T05:39:54.583Z,22.47
2017-07-16T05:40:54.362Z,22.54
2017-07-16T05:41:54.147Z,22.45
2017-07-16T05:42:54.405Z,22.48
2017-07-16T05:43:54.027Z,22.44
2017-07-16T05:44:54.271Z,22.44
2017-07-16T05:45:54.363Z,22.45
2017-07-16T05:46:54.143Z,22.48
2017-07-16T05:47:53.770Z,22.5
2017-07-16T05:48:54.014Z,22.47
2017-07-16T05:49:54.005Z,22.44
2017-07-16T05:50:53.586Z,22.45
2017-07-16T05:51:53.524Z,22.48
2017-07-16T05:52:53.767Z,22.47
2017-07-16T05:53:53.402Z,22.47
2017-07-16T05:54:53.645Z,22.5
2017-07-16T05:55:52.962Z,22.45
2017-07-16T05:56:52.896Z,22.5
2017-07-16T05:57:53.461Z,22.5
2017-07-16T05:58:53.084Z,22.5
2017-07-16T05:59:53.326Z,22.54
2017-07-16T06:00:53.380Z,22.54
2017-07-16T06:01:52.948Z,22.45
2017-07-16T06:02:52.829Z,22.55
2017-07-16T06:03:53.081Z,22.5
2017-07-16T06:04:53.015Z,22.51
2017-07-16T06:05:53.098Z,22.45
2017-07-16T06:06:52.584Z,22.5
2017-07-16T06:07:52.829Z,22.48
2017-07-16T06:08:52.455Z,22.45
2017-07-16T06:09:52.704Z,22.48
2017-07-16T06:10:52.351Z,22.54
2017-07-16T06:11:52.263Z,22.51
2017-07-16T06:12:52.507Z,22.47
2017-07-16T06:13:52.451Z,22.47
2017-07-16T06:14:52.470Z,22.53
2017-07-16T06:15:52.019Z,22.5
2017-07-16T06:16:52.263Z,22.55
2017-07-16T06:17:52.199Z,22.47
2017-07-16T06:18:52.137Z,22.5
2017-07-16T06:19:52.136Z,22.51
2017-07-16T06:20:51.733Z,22.59
2017-07-16T06:21:51.641Z,22.51
2017-07-16T06:22:51.266Z,22.44
2017-07-16T06:23:51.597Z,22.5
2017-07-16T06:24:51.848Z,22.53
2017-07-16T06:25:51.394Z,22.53
2017-07-16T06:26:51.636Z,22.51
2017-07-16T06:27:51.571Z,22.53
2017-07-16T06:28:51.515Z,22.5
2017-07-16T06:29:51.452Z,22.57
2017-07-16T06:30:51.385Z,22.53
2017-07-16T06:31:51.015Z,22.51
2017-07-16T06:32:50.951Z,22.51
2017-07-16T06:33:51.194Z,22.54
2017-07-16T06:34:50.832Z,22.57
2017-07-16T06:35:51.070Z,22.55
2017-07-16T06:36:51.012Z,22.54
2017-07-16T06:37:50.948Z,22.54
2017-07-16T06:38:50.576Z,22.59
2017-07-16T06:39:50.824Z,22.54
2017-07-16T06:40:50.757Z,22.57
2017-07-16T06:41:50.387Z,22.53
2017-07-16T06:42:50.326Z,22.53
2017-07-16T06:43:50.570Z,22.57
2017-07-16T06:44:50.587Z,22.57
2017-07-16T06:46:05.187Z,22.54
2017-07-16T06:46:50.073Z,22.55
2017-07-16T06:47:50.409Z,22.47
2017-07-16T06:48:50.335Z,22.55
2017-07-16T06:49:50.190Z,22.59
2017-07-16T06:50:50.429Z,22.57
2017-07-16T06:51:50.220Z,22.59
2017-07-16T06:52:50.003Z,22.57
2017-07-16T06:53:49.633Z,22.6
2017-07-16T06:54:49.882Z,22.5
2017-07-16T06:55:49.816Z,22.57
2017-07-16T06:56:49.453Z,22.57
2017-07-16T06:57:49.385Z,22.57
2017-07-16T06:58:49.628Z,22.57
2017-07-16T06:59:49.567Z,22.57
2017-07-16T07:00:49.609Z,22.57
2017-07-16T07:01:49.511Z,22.59
2017-07-16T07:02:49.074Z,22.57
2017-07-16T07:03:49.317Z,22.57
2017-07-16T07:04:48.954Z,22.59
2017-07-16T07:05:49.181Z,22.62
2017-07-16T07:06:48.660Z,22.57
2017-07-16T07:07:48.755Z,22.55
2017-07-16T07:08:48.696Z,22.57
2017-07-16T07:09:48.939Z,22.57
2017-07-16T07:10:48.878Z,22.55
2017-07-16T07:11:49.066Z,22.54
2017-07-16T07:12:48.757Z,22.53
2017-07-16T07:13:48.712Z,22.6
2017-07-16T07:14:48.734Z,22.55
2017-07-16T07:15:48.611Z,22.57
2017-07-16T07:16:48.869Z,22.65
2017-07-16T07:17:48.441Z,22.6
2017-07-16T07:18:48.385Z,22.55
2017-07-16T07:19:48.039Z,22.6
2017-07-16T07:20:48.591Z,22.57
2017-07-16T07:21:48.196Z,22.54
2017-07-16T07:22:47.818Z,22.55
2017-07-16T07:23:47.447Z,22.65
2017-07-16T07:24:48.019Z,22.66
2017-07-16T07:25:47.363Z,22.57
2017-07-16T07:26:47.886Z,22.55
2017-07-16T07:27:47.886Z,22.6
2017-07-16T07:28:47.753Z,22.55
2017-07-16T07:29:47.690Z,22.63
2017-07-16T07:30:47.631Z,22.65
2017-07-16T07:31:47.258Z,22.69
2017-07-16T07:32:47.611Z,22.55
2017-07-16T07:33:47.129Z,22.68
2017-07-16T07:34:47.396Z,22.69
2017-07-16T07:35:47.006Z,22.54
2017-07-16T07:36:47.372Z,22.68
2017-07-16T07:37:47.190Z,22.62
2017-07-16T07:38:47.152Z,22.6
2017-07-16T07:39:47.064Z,22.69
2017-07-16T07:40:47.454Z,22.68
2017-07-16T07:41:46.628Z,22.65
2017-07-16T07:42:46.567Z,22.6
2017-07-16T07:43:46.826Z,22.66
2017-07-16T07:44:46.752Z,22.63
2017-07-16T07:45:46.686Z,22.62
2017-07-16T07:46:46.632Z,22.62
2017-07-16T07:47:46.257Z,22.63
2017-07-16T07:48:46.190Z,22.62
2017-07-16T07:49:46.134Z,22.65
2017-07-16T07:50:46.384Z,22.65
2017-07-16T07:51:46.337Z,22.63
2017-07-16T07:52:45.943Z,22.68
2017-07-16T07:53:46.223Z,22.63
2017-07-16T07:54:46.127Z,22.7
2017-07-16T07:55:46.004Z,22.69
2017-07-16T07:56:46.009Z,22.7
2017-07-16T07:57:45.946Z,22.68
2017-07-16T07:58:45.569Z,22.62
2017-07-16T07:59:45.894Z,22.6
2017-07-16T08:00:45.968Z,22.65
2017-07-16T08:01:45.723Z,22.69
2017-07-16T08:02:45.635Z,22.75
2017-07-16T08:03:45.328Z,22.54
2017-07-16T08:04:45.514Z,22.68
2017-07-16T08:05:46.397Z,22.73
2017-07-16T08:06:45.375Z,22.7
2017-07-16T08:07:45.075Z,22.7
2017-07-16T08:08:44.942Z,22.76
2017-07-16T08:09:45.189Z,22.75
2017-07-16T08:10:45.482Z,22.69
2017-07-16T08:11:45.099Z,22.69
2017-07-16T08:12:45.003Z,22.7
2017-07-16T08:13:44.934Z,22.6
2017-07-16T08:14:44.875Z,22.69
2017-07-16T08:15:44.813Z,22.68
2017-07-16T08:16:44.539Z,22.76
2017-07-16T08:17:44.384Z,22.63
2017-07-16T08:18:44.627Z,22.76
2017-07-16T08:19:44.576Z,22.65
2017-07-16T08:20:44.503Z,22.76
2017-07-16T08:21:44.444Z,22.75
2017-07-16T08:22:43.754Z,22.73
2017-07-16T08:23:43.702Z,22.7
2017-07-16T08:24:43.943Z,22.75
2017-07-16T08:25:43.883Z,22.75
2017-07-16T08:26:44.364Z,22.73
2017-07-16T08:27:44.062Z,22.75
2017-07-16T08:28:44.013Z,22.75
2017-07-16T08:29:43.966Z,22.75
2017-07-16T08:30:43.943Z,22.76
2017-07-16T08:31:43.507Z,22.66
2017-07-16T08:32:43.483Z,22.81
2017-07-16T08:33:43.846Z,22.78
2017-07-16T08:34:43.410Z,22.78
2017-07-16T08:35:43.578Z,22.73
2017-07-16T08:36:43.498Z,22.75
2017-07-16T08:37:43.639Z,22.7
2017-07-16T08:38:43.374Z,22.75
2017-07-16T08:39:43.318Z,22.81
2017-07-16T08:40:43.088Z,22.75
2017-07-16T08:41:43.192Z,22.72
2017-07-16T08:42:42.824Z,22.81
2017-07-16T08:43:43.134Z,22.75
2017-07-16T08:44:42.708Z,22.83
2017-07-16T08:45:42.937Z,22.72
2017-07-16T08:46:42.625Z,22.76
2017-07-16T08:47:42.813Z,22.78
2017-07-16T08:48:42.439Z,22.8
2017-07-16T08:49:42.750Z,22.84
2017-07-16T08:50:42.010Z,22.84
2017-07-16T08:51:42.620Z,22.84
2017-07-16T08:52:42.186Z,22.84
2017-07-16T08:53:42.129Z,22.75
2017-07-16T08:54:42.087Z,22.8
2017-07-16T08:55:42.001Z,22.78
2017-07-16T08:56:41.946Z,22.8
2017-07-16T08:57:42.183Z,22.78
2017-07-16T08:58:42.181Z,22.75
2017-07-16T08:59:42.063Z,22.73
2017-07-16T09:00:42.015Z,22.75
2017-07-16T09:01:41.625Z,22.76
2017-07-16T09:02:41.564Z,22.7
2017-07-16T09:03:41.816Z,22.72
2017-07-16T09:04:41.747Z,22.75
2017-07-16T09:05:41.936Z,22.78
2017-07-16T09:06:41.426Z,22.85
2017-07-16T09:07:41.261Z,22.75
2017-07-16T09:08:40.882Z,22.72
2017-07-16T09:09:41.435Z,22.8
2017-07-16T09:10:41.378Z,22.75
2017-07-16T09:11:41.316Z,22.76
2017-07-16T09:12:40.935Z,22.78
2017-07-16T09:13:40.897Z,22.75
2017-07-16T09:14:41.123Z,22.87
2017-07-16T09:15:40.760Z,22.84
2017-07-16T09:16:41.001Z,22.83
2017-07-16T09:17:40.945Z,22.81
2017-07-16T09:18:40.879Z,22.83
2017-07-16T09:19:41.040Z,22.81
2017-07-16T09:20:40.185Z,22.81
2017-07-16T09:21:40.642Z,22.81
2017-07-16T09:22:40.315Z,22.84
2017-07-16T09:23:40.279Z,22.84
2017-07-16T09:24:40.532Z,22.84
2017-07-16T09:25:40.444Z,22.83
2017-07-16T09:26:40.484Z,22.8
2017-07-16T09:27:40.341Z,22.83
2017-07-16T09:28:40.307Z,22.85
2017-07-16T09:29:40.217Z,22.81
2017-07-16T09:30:39.858Z,22.85
2017-07-16T09:31:40.314Z,22.83
2017-07-16T09:32:40.006Z,22.83
2017-07-16T09:33:39.940Z,22.83
2017-07-16T09:34:39.573Z,22.85
2017-07-16T09:35:39.870Z,22.81
2017-07-16T09:36:39.892Z,22.85
2017-07-16T09:37:39.696Z,22.83
2017-07-16T09:38:39.366Z,22.85
2017-07-16T09:39:39.601Z,22.8
2017-07-16T09:40:39.535Z,22.87
2017-07-16T09:41:39.597Z,22.78
2017-07-16T09:42:38.957Z,22.8
2017-07-16T09:43:40.576Z,22.75
2017-07-16T09:44:39.253Z,22.81
2017-07-16T09:45:39.256Z,22.81
2017-07-16T09:46:39.173Z,22.8
2017-07-16T09:47:38.834Z,22.81
2017-07-16T09:48:38.388Z,22.81
2017-07-16T09:49:38.318Z,22.9
2017-07-16T09:50:38.889Z,22.81
2017-07-16T09:51:38.526Z,22.81
2017-07-16T09:52:38.754Z,22.93
2017-07-16T09:53:38.137Z,22.8
2017-07-16T09:54:38.625Z,22.8
2017-07-16T09:55:38.562Z,22.81
2017-07-16T09:56:38.607Z,22.87
2017-07-16T09:57:37.874Z,22.81
2017-07-16T09:58:38.080Z,22.8
2017-07-16T09:59:38.242Z,22.8
2017-07-16T10:00:38.477Z,22.9
2017-07-16T10:01:38.046Z,22.83
2017-07-16T10:02:37.857Z,22.81
2017-07-16T10:03:38.066Z,22.81
2017-07-16T10:04:37.694Z,22.83
2017-07-16T10:05:37.731Z,22.91
2017-07-16T10:06:37.572Z,22.78
2017-07-16T10:07:38.041Z,22.93
2017-07-16T10:08:37.817Z,22.93
2017-07-16T10:09:37.700Z,22.9
2017-07-16T10:10:37.743Z,22.8
2017-07-16T10:11:37.593Z,22.88
2017-07-16T10:12:37.243Z,22.91
2017-07-16T10:13:38.417Z,22.93
2017-07-16T10:14:37.443Z,22.85
2017-07-16T10:15:37.592Z,22.94
2017-07-16T10:16:36.955Z,22.84
2017-07-16T10:17:36.886Z,22.91
2017-07-16T10:18:37.425Z,22.9
2017-07-16T10:19:37.137Z,22.83
2017-07-16T10:20:37.207Z,22.83
2017-07-16T10:21:36.650Z,22.9
2017-07-16T10:22:36.357Z,22.98
2017-07-16T10:23:36.564Z,22.93
2017-07-16T10:24:36.840Z,22.85
2017-07-16T10:25:36.501Z,22.8
2017-07-16T10:26:36.322Z,22.91
2017-07-16T10:27:36.703Z,22.9
2017-07-16T10:28:36.515Z,22.81
2017-07-16T10:29:36.557Z,22.91
2017-07-16T10:30:36.176Z,22.88
2017-07-16T10:31:36.064Z,22.9
2017-07-16T10:32:35.639Z,22.9
2017-07-16T10:33:36.198Z,22.91
2017-07-16T10:34:36.131Z,22.91
2017-07-16T10:35:36.167Z,22.93
2017-07-16T10:36:35.699Z,22.85
2017-07-16T10:37:36.010Z,22.87
2017-07-16T10:38:35.887Z,22.88
2017-07-16T10:39:35.511Z,22.9
2017-07-16T10:40:35.451Z,22.94
2017-07-16T10:41:35.704Z,22.88
2017-07-16T10:42:35.527Z,22.93
2017-07-16T10:43:35.275Z,22.94
2017-07-16T10:44:35.221Z,22.94
2017-07-16T10:45:35.449Z,22.87
2017-07-16T10:46:35.077Z,22.9
2017-07-16T10:47:35.066Z,22.88
2017-07-16T10:48:34.964Z,22.91
2017-07-16T10:49:35.253Z,22.91
2017-07-16T10:50:35.190Z,22.85
2017-07-16T10:51:35.129Z,22.94
2017-07-16T10:52:35.013Z,22.99
2017-07-16T10:53:34.965Z,22.91
2017-07-16T10:54:34.938Z,22.93
2017-07-16T10:55:34.542Z,22.88
2017-07-16T10:56:34.941Z,22.99
2017-07-16T10:57:34.713Z,22.98
2017-07-16T10:58:34.641Z,22.96
2017-07-16T10:59:34.780Z,22.91
2017-07-16T11:00:34.514Z,22.99
2017-07-16T11:01:34.146Z,22.94
2017-07-16T11:02:34.086Z,23
2017-07-16T11:03:34.296Z,22.91
2017-07-16T11:04:33.961Z,22.88
2017-07-16T11:05:34.516Z,22.85
2017-07-16T11:06:34.140Z,22.9
2017-07-16T11:07:34.077Z,22.93
2017-07-16T11:08:34.017Z,22.88
2017-07-16T11:09:33.657Z,22.93
2017-07-16T11:10:33.904Z,22.88
2017-07-16T11:11:33.934Z,22.88
2017-07-16T11:12:33.786Z,22.87
2017-07-16T11:13:33.458Z,23
2017-07-16T11:14:33.873Z,22.98
2017-07-16T11:15:33.615Z,22.98
2017-07-16T11:16:33.518Z,22.98
2017-07-16T11:17:33.277Z,22.98
2017-07-16T11:18:33.094Z,22.93
2017-07-16T11:19:33.048Z,22.96
2017-07-16T11:20:33.278Z,22.94
2017-07-16T11:21:32.635Z,22.98
2017-07-16T11:22:32.841Z,22.94
2017-07-16T11:23:32.771Z,22.94
2017-07-16T11:24:32.725Z,22.99
2017-07-16T11:25:32.863Z,23
2017-07-16T11:26:32.896Z,22.96
2017-07-16T11:27:32.842Z,23.03
2017-07-16T11:28:32.773Z,22.96
2017-07-16T11:29:32.717Z,22.93
2017-07-16T11:30:32.757Z,22.99
2017-07-16T11:31:32.274Z,22.98
2017-07-16T11:32:32.221Z,22.98
2017-07-16T11:33:32.491Z,23.03
2017-07-16T11:34:31.778Z,22.96
2017-07-16T11:35:32.338Z,22.91
2017-07-16T11:36:32.023Z,22.93
2017-07-16T11:37:32.210Z,22.96
2017-07-16T11:38:32.419Z,23
2017-07-16T11:39:31.487Z,23
2017-07-16T11:40:31.729Z,22.98
2017-07-16T11:41:31.676Z,23.02
2017-07-16T11:42:31.625Z,23.02
2017-07-16T11:43:31.542Z,22.99
2017-07-16T11:44:31.989Z,22.98
2017-07-16T11:45:31.723Z,23
2017-07-16T11:46:31.655Z,23.02
2017-07-16T11:47:31.306Z,23
2017-07-16T11:48:31.528Z,23
2017-07-16T11:49:31.474Z,22.98
2017-07-16T11:50:31.438Z,22.98
2017-07-16T11:51:31.591Z,23
2017-07-16T11:52:30.966Z,23
2017-07-16T11:53:30.938Z,23.02
2017-07-16T11:54:30.857Z,23.02
2017-07-16T11:55:31.091Z,23
2017-07-16T11:56:30.733Z,23
2017-07-16T11:57:30.695Z,23.03
2017-07-16T11:58:30.595Z,23.02
2017-07-16T11:59:30.853Z,23.02
2017-07-16T12:00:30.856Z,22.98
2017-07-16T12:01:30.720Z,23.03
2017-07-16T12:02:30.660Z,23.02
2017-07-16T12:03:30.616Z,23.05
2017-07-16T12:04:30.239Z,23.02
2017-07-16T12:05:30.493Z,23.03
2017-07-16T12:06:30.097Z,22.99
2017-07-16T12:07:30.341Z,22.99
2017-07-16T12:08:29.662Z,23.05
2017-07-16T12:09:30.237Z,22.99
2017-07-16T12:10:29.873Z,23.03
2017-07-16T12:11:30.092Z,23
2017-07-16T12:12:30.034Z,23.03
2017-07-16T12:13:29.972Z,23
2017-07-16T12:14:29.909Z,23.06
2017-07-16T12:15:29.535Z,23.05
2017-07-16T12:16:29.989Z,23.05
2017-07-16T12:17:29.417Z,23.05
2017-07-16T12:18:29.346Z,23
2017-07-16T12:19:29.601Z,23
2017-07-16T12:20:29.549Z,23.06
2017-07-16T12:21:29.679Z,23
2017-07-16T12:22:29.112Z,23.05
2017-07-16T12:23:29.071Z,23.06
2017-07-16T12:24:29.314Z,23.03
2017-07-16T12:25:29.224Z,23.05
2017-07-16T12:26:29.214Z,23.02
2017-07-16T12:27:28.491Z,23.05
2017-07-16T12:28:29.049Z,23.03
2017-07-16T12:29:28.994Z,23.03
2017-07-16T12:30:28.672Z,23.03
2017-07-16T12:31:28.745Z,23.06
2017-07-16T12:32:28.521Z,23.03
2017-07-16T12:33:28.746Z,23.03
2017-07-16T12:34:28.663Z,23.02
2017-07-16T12:35:28.417Z,23.08
2017-07-16T12:36:28.547Z,23.06
2017-07-16T12:37:28.203Z,23.02
2017-07-16T12:38:28.177Z,23.03
2017-07-16T12:39:28.077Z,23.03
2017-07-16T12:40:28.026Z,23.03
2017-07-16T12:41:27.962Z,23.06
2017-07-16T12:42:28.226Z,23.03
2017-07-16T12:43:28.141Z,23
2017-07-16T12:44:28.110Z,23.02
2017-07-16T12:45:27.672Z,23.03
2017-07-16T12:46:27.923Z,23.12
2017-07-16T12:47:28.058Z,23.03
2017-07-16T12:48:27.502Z,23.05
2017-07-16T12:49:27.735Z,22.99
2017-07-16T12:50:27.675Z,23.03
2017-07-16T12:51:27.606Z,23.03
2017-07-16T12:52:27.441Z,23.03
2017-07-16T12:53:27.510Z,22.99
2017-07-16T12:54:27.199Z,23.06
2017-07-16T12:55:27.368Z,23.05
2017-07-16T12:56:26.985Z,23.06